sensor_id;sensor_type;location;lat;lon;timestamp;temperature;humidity
20977;DHT22;10647;51.016;3.720;2023-02-22T00:00:01;7.90;99.90
20977;DHT22;10647;51.016;3.720;2023-02-22T00:02:33;7.80;99.90
20977;DHT22;10647;51.016;3.720;2023-02-22T00:05:03;7.80;99.90
20977;DHT22;10647;51.016;3.720;2023-02-22T00:07:44;7.80;99.90
20977;DHT22;10647;51.016;3.720;2023-02-22T00:10:18;7.80;99.90
20977;DHT22;10647;51.016;3.720;2023-02-22T00:12:53;7.80;99.90
20977;DHT22;10647;51.016;3.720;2023-02-22T00:15:24;7.80;99.90
20977;DHT22;10647;51.016;3.720;2023-02-22T00:18:02;7.80;99.90
20977;DHT22;10647;51.016;3.720;2023-02-22T00:20:31;7.80;99.90
20977;DHT22;10647;51.016;3.720;2023-02-22T00:23:19;7.70;99.90
20977;DHT22;10647;51.016;3.720;2023-02-22T00:25:48;7.70;99.90
20977;DHT22;10647;51.016;3.720;2023-02-22T00:28:17;7.80;99.90
20977;DHT22;10647;51.016;3.720;2023-02-22T00:30:45;7.70;99.90
20977;DHT22;10647;51.016;3.720;2023-02-22T00:33:14;7.80;99.90
20977;DHT22;10647;51.016;3.720;2023-02-22T00:35:44;7.80;99.90
20977;DHT22;10647;51.016;3.720;2023-02-22T00:38:13;7.90;99.90
20977;DHT22;10647;51.016;3.720;2023-02-22T00:40:42;7.90;99.90
20977;DHT22;10647;51.016;3.720;2023-02-22T00:43:15;7.80;99.90
20977;DHT22;10647;51.016;3.720;2023-02-22T00:45:40;7.80;99.90
20977;DHT22;10647;51.016;3.720;2023-02-22T00:48:12;7.70;99.90
20977;DHT22;10647;51.016;3.720;2023-02-22T00:50:41;7.70;99.90
20977;DHT22;10647;51.016;3.720;2023-02-22T00:53:10;7.70;99.90
20977;DHT22;10647;51.016;3.720;2023-02-22T00:55:38;7.70;99.90
20977;DHT22;10647;51.016;3.720;2023-02-22T00:58:06;7.70;99.90
20977;DHT22;10647;51.016;3.720;2023-02-22T01:00:37;7.70;99.90
20977;DHT22;10647;51.016;3.720;2023-02-22T01:03:08;7.80;99.90
20977;DHT22;10647;51.016;3.720;2023-02-22T01:05:37;7.80;99.90
20977;DHT22;10647;51.016;3.720;2023-02-22T01:08:06;7.80;99.90
20977;DHT22;10647;51.016;3.720;2023-02-22T01:10:34;7.80;99.90
20977;DHT22;10647;51.016;3.720;2023-02-22T01:13:03;7.70;99.90
20977;DHT22;10647;51.016;3.720;2023-02-22T01:15:32;7.70;99.90
20977;DHT22;10647;51.016;3.720;2023-02-22T01:18:01;7.70;99.90
20977;DHT22;10647;51.016;3.720;2023-02-22T01:20:31;7.60;99.90
20977;DHT22;10647;51.016;3.720;2023-02-22T01:23:02;7.60;99.90
20977;DHT22;10647;51.016;3.720;2023-02-22T01:25:31;7.50;99.90
20977;DHT22;10647;51.016;3.720;2023-02-22T01:28:06;7.50;99.90
20977;DHT22;10647;51.016;3.720;2023-02-22T01:30:36;7.50;99.90
20977;DHT22;10647;51.016;3.720;2023-02-22T01:33:05;7.50;99.90
20977;DHT22;10647;51.016;3.720;2023-02-22T01:35:35;7.50;99.90
20977;DHT22;10647;51.016;3.720;2023-02-22T01:38:07;7.50;99.90
20977;DHT22;10647;51.016;3.720;2023-02-22T01:40:42;7.50;99.90
20977;DHT22;10647;51.016;3.720;2023-02-22T01:43:26;7.50;99.90
20977;DHT22;10647;51.016;3.720;2023-02-22T01:49:00;7.50;99.90
20977;DHT22;10647;51.016;3.720;2023-02-22T01:57:24;7.40;99.90
20977;DHT22;10647;51.016;3.720;2023-02-22T01:59:56;7.40;99.90
20977;DHT22;10647;51.016;3.720;2023-02-22T02:02:27;7.40;99.90
20977;DHT22;10647;51.016;3.720;2023-02-22T02:04:56;7.40;99.90
20977;DHT22;10647;51.016;3.720;2023-02-22T02:07:27;7.50;99.90
20977;DHT22;10647;51.016;3.720;2023-02-22T02:10:10;7.50;99.90
20977;DHT22;10647;51.016;3.720;2023-02-22T02:15:35;7.50;99.90
20977;DHT22;10647;51.016;3.720;2023-02-22T02:18:06;7.50;99.90
20977;DHT22;10647;51.016;3.720;2023-02-22T02:32:38;7.40;99.90
20977;DHT22;10647;51.016;3.720;2023-02-22T02:35:11;7.30;99.90
20977;DHT22;10647;51.016;3.720;2023-02-22T02:37:46;7.30;99.90
20977;DHT22;10647;51.016;3.720;2023-02-22T02:43:04;7.20;99.90
20977;DHT22;10647;51.016;3.720;2023-02-22T02:45:37;7.20;99.90
20977;DHT22;10647;51.016;3.720;2023-02-22T02:51:00;7.20;99.90
20977;DHT22;10647;51.016;3.720;2023-02-22T02:53:35;7.10;99.90
20977;DHT22;10647;51.016;3.720;2023-02-22T02:56:22;7.10;99.90
20977;DHT22;10647;51.016;3.720;2023-02-22T02:58:51;7.10;99.90
20977;DHT22;10647;51.016;3.720;2023-02-22T03:01:52;7.20;99.90
20977;DHT22;10647;51.016;3.720;2023-02-22T03:15:55;7.20;99.90
20977;DHT22;10647;51.016;3.720;2023-02-22T03:18:24;7.20;99.90
20977;DHT22;10647;51.016;3.720;2023-02-22T03:26:43;7.20;99.90
20977;DHT22;10647;51.016;3.720;2023-02-22T03:29:24;7.20;99.90
20977;DHT22;10647;51.016;3.720;2023-02-22T03:31:56;7.20;99.90
20977;DHT22;10647;51.016;3.720;2023-02-22T03:37:30;7.30;99.90
20977;DHT22;10647;51.016;3.720;2023-02-22T03:40:03;7.30;99.90
20977;DHT22;10647;51.016;3.720;2023-02-22T03:42:35;7.30;99.90
20977;DHT22;10647;51.016;3.720;2023-02-22T03:45:15;7.30;99.90
20977;DHT22;10647;51.016;3.720;2023-02-22T03:47:50;7.40;99.90
20977;DHT22;10647;51.016;3.720;2023-02-22T03:50:37;7.40;99.90
20977;DHT22;10647;51.016;3.720;2023-02-22T03:53:07;7.50;99.90
20977;DHT22;10647;51.016;3.720;2023-02-22T03:55:34;7.50;99.90
20977;DHT22;10647;51.016;3.720;2023-02-22T03:58:08;7.50;99.90
20977;DHT22;10647;51.016;3.720;2023-02-22T04:00:41;7.50;99.90
20977;DHT22;10647;51.016;3.720;2023-02-22T04:03:15;7.50;99.90
20977;DHT22;10647;51.016;3.720;2023-02-22T04:05:49;7.60;99.90
20977;DHT22;10647;51.016;3.720;2023-02-22T04:08:18;7.60;99.90
20977;DHT22;10647;51.016;3.720;2023-02-22T04:10:47;7.60;99.90
20977;DHT22;10647;51.016;3.720;2023-02-22T04:13:17;7.60;99.90
20977;DHT22;10647;51.016;3.720;2023-02-22T04:15:51;7.70;99.90
20977;DHT22;10647;51.016;3.720;2023-02-22T04:18:19;7.70;99.90
20977;DHT22;10647;51.016;3.720;2023-02-22T04:20:47;7.70;99.90
20977;DHT22;10647;51.016;3.720;2023-02-22T04:23:21;7.70;99.90
20977;DHT22;10647;51.016;3.720;2023-02-22T04:25:57;7.70;99.90
20977;DHT22;10647;51.016;3.720;2023-02-22T04:28:27;7.70;99.90
20977;DHT22;10647;51.016;3.720;2023-02-22T04:30:56;7.70;99.90
20977;DHT22;10647;51.016;3.720;2023-02-22T04:33:29;7.70;99.90
20977;DHT22;10647;51.016;3.720;2023-02-22T04:35:58;7.60;99.90
20977;DHT22;10647;51.016;3.720;2023-02-22T04:38:31;7.60;99.90
20977;DHT22;10647;51.016;3.720;2023-02-22T04:41:04;7.50;99.90
20977;DHT22;10647;51.016;3.720;2023-02-22T04:43:32;7.60;99.90
20977;DHT22;10647;51.016;3.720;2023-02-22T04:45:59;7.50;99.90
20977;DHT22;10647;51.016;3.720;2023-02-22T04:48:27;7.50;99.90
20977;DHT22;10647;51.016;3.720;2023-02-22T04:50:56;7.50;99.90
20977;DHT22;10647;51.016;3.720;2023-02-22T04:53:24;7.50;99.90
20977;DHT22;10647;51.016;3.720;2023-02-22T04:55:52;7.50;99.90
20977;DHT22;10647;51.016;3.720;2023-02-22T04:58:20;7.50;99.90
20977;DHT22;10647;51.016;3.720;2023-02-22T05:00:51;7.50;99.90
20977;DHT22;10647;51.016;3.720;2023-02-22T05:03:19;7.50;99.90
20977;DHT22;10647;51.016;3.720;2023-02-22T05:05:46;7.40;99.90
20977;DHT22;10647;51.016;3.720;2023-02-22T05:08:15;7.40;99.90
20977;DHT22;10647;51.016;3.720;2023-02-22T05:10:42;7.40;99.90
20977;DHT22;10647;51.016;3.720;2023-02-22T05:13:10;7.40;99.90
20977;DHT22;10647;51.016;3.720;2023-02-22T05:15:38;7.40;99.90
20977;DHT22;10647;51.016;3.720;2023-02-22T05:18:08;7.40;99.90
20977;DHT22;10647;51.016;3.720;2023-02-22T05:20:35;7.40;99.90
20977;DHT22;10647;51.016;3.720;2023-02-22T05:23:04;7.40;99.90
20977;DHT22;10647;51.016;3.720;2023-02-22T05:25:34;7.40;99.90
20977;DHT22;10647;51.016;3.720;2023-02-22T05:28:10;7.50;99.90
20977;DHT22;10647;51.016;3.720;2023-02-22T05:30:42;7.50;99.90
20977;DHT22;10647;51.016;3.720;2023-02-22T05:33:12;7.50;99.90
20977;DHT22;10647;51.016;3.720;2023-02-22T05:35:50;7.50;99.90
20977;DHT22;10647;51.016;3.720;2023-02-22T05:38:28;7.60;99.90
20977;DHT22;10647;51.016;3.720;2023-02-22T05:40:57;7.60;99.90
20977;DHT22;10647;51.016;3.720;2023-02-22T05:43:37;7.60;99.90
20977;DHT22;10647;51.016;3.720;2023-02-22T05:48:45;7.50;99.90
20977;DHT22;10647;51.016;3.720;2023-02-22T05:51:18;7.50;99.90
20977;DHT22;10647;51.016;3.720;2023-02-22T05:53:52;7.60;99.90
20977;DHT22;10647;51.016;3.720;2023-02-22T05:56:22;7.60;99.90
20977;DHT22;10647;51.016;3.720;2023-02-22T05:58:53;7.70;99.90
20977;DHT22;10647;51.016;3.720;2023-02-22T06:01:23;7.70;99.90
20977;DHT22;10647;51.016;3.720;2023-02-22T06:03:59;7.80;99.90
20977;DHT22;10647;51.016;3.720;2023-02-22T06:06:29;7.80;99.90
20977;DHT22;10647;51.016;3.720;2023-02-22T06:08:57;7.80;99.90
20977;DHT22;10647;51.016;3.720;2023-02-22T06:11:26;7.80;99.90
20977;DHT22;10647;51.016;3.720;2023-02-22T06:13:54;7.80;99.90
20977;DHT22;10647;51.016;3.720;2023-02-22T06:16:54;7.80;99.90
20977;DHT22;10647;51.016;3.720;2023-02-22T06:19:22;7.70;99.90
20977;DHT22;10647;51.016;3.720;2023-02-22T06:21:55;7.60;99.90
20977;DHT22;10647;51.016;3.720;2023-02-22T06:24:30;7.50;99.90
20977;DHT22;10647;51.016;3.720;2023-02-22T06:27:00;7.50;99.90
20977;DHT22;10647;51.016;3.720;2023-02-22T06:29:45;7.50;99.90
20977;DHT22;10647;51.016;3.720;2023-02-22T06:32:28;7.50;99.90
20977;DHT22;10647;51.016;3.720;2023-02-22T06:34:57;7.50;99.90
20977;DHT22;10647;51.016;3.720;2023-02-22T06:37:27;7.50;99.90
20977;DHT22;10647;51.016;3.720;2023-02-22T06:40:14;7.50;99.90
20977;DHT22;10647;51.016;3.720;2023-02-22T06:42:41;7.50;99.90
20977;DHT22;10647;51.016;3.720;2023-02-22T06:45:09;7.50;99.90
20977;DHT22;10647;51.016;3.720;2023-02-22T06:47:39;7.50;99.90
20977;DHT22;10647;51.016;3.720;2023-02-22T06:50:21;7.50;99.90
20977;DHT22;10647;51.016;3.720;2023-02-22T06:53:07;7.60;99.90
20977;DHT22;10647;51.016;3.720;2023-02-22T06:55:35;7.60;99.90
20977;DHT22;10647;51.016;3.720;2023-02-22T06:58:09;7.60;99.90
20977;DHT22;10647;51.016;3.720;2023-02-22T07:00:36;7.70;99.90
20977;DHT22;10647;51.016;3.720;2023-02-22T07:03:05;7.70;99.90
20977;DHT22;10647;51.016;3.720;2023-02-22T07:05:36;7.80;99.90
20977;DHT22;10647;51.016;3.720;2023-02-22T07:08:05;7.90;99.90
20977;DHT22;10647;51.016;3.720;2023-02-22T07:10:47;8.00;99.90
20977;DHT22;10647;51.016;3.720;2023-02-22T07:13:24;8.10;99.90
20977;DHT22;10647;51.016;3.720;2023-02-22T07:15:58;8.20;99.90
20977;DHT22;10647;51.016;3.720;2023-02-22T07:18:26;8.30;99.90
20977;DHT22;10647;51.016;3.720;2023-02-22T07:20:53;8.30;99.90
20977;DHT22;10647;51.016;3.720;2023-02-22T07:23:22;8.40;99.90
20977;DHT22;10647;51.016;3.720;2023-02-22T07:25:50;8.40;99.90
20977;DHT22;10647;51.016;3.720;2023-02-22T07:28:17;8.50;99.90
20977;DHT22;10647;51.016;3.720;2023-02-22T07:30:45;8.50;99.90
20977;DHT22;10647;51.016;3.720;2023-02-22T07:33:13;8.60;99.90
20977;DHT22;10647;51.016;3.720;2023-02-22T07:35:46;8.70;99.90
20977;DHT22;10647;51.016;3.720;2023-02-22T07:38:20;8.70;99.90
20977;DHT22;10647;51.016;3.720;2023-02-22T07:40:47;8.80;99.90
20977;DHT22;10647;51.016;3.720;2023-02-22T07:43:23;8.80;99.90
20977;DHT22;10647;51.016;3.720;2023-02-22T07:45:56;8.90;99.90
20977;DHT22;10647;51.016;3.720;2023-02-22T07:51:23;9.10;99.90
20977;DHT22;10647;51.016;3.720;2023-02-22T07:53:50;9.10;99.90
20977;DHT22;10647;51.016;3.720;2023-02-22T07:56:18;9.10;99.90
20977;DHT22;10647;51.016;3.720;2023-02-22T07:58:45;9.20;99.90
20977;DHT22;10647;51.016;3.720;2023-02-22T08:01:13;9.20;99.90
20977;DHT22;10647;51.016;3.720;2023-02-22T08:03:41;9.30;99.90
20977;DHT22;10647;51.016;3.720;2023-02-22T08:06:09;9.30;99.90
20977;DHT22;10647;51.016;3.720;2023-02-22T08:08:57;9.40;99.90
20977;DHT22;10647;51.016;3.720;2023-02-22T08:21:34;9.80;99.90
20977;DHT22;10647;51.016;3.720;2023-02-22T08:24:07;9.90;99.90
20977;DHT22;10647;51.016;3.720;2023-02-22T08:26:35;10.00;99.90
20977;DHT22;10647;51.016;3.720;2023-02-22T08:29:10;10.20;99.90
20977;DHT22;10647;51.016;3.720;2023-02-22T08:31:50;10.30;99.90
20977;DHT22;10647;51.016;3.720;2023-02-22T08:34:26;10.40;99.90
20977;DHT22;10647;51.016;3.720;2023-02-22T08:36:59;10.50;99.90
20977;DHT22;10647;51.016;3.720;2023-02-22T08:39:36;10.60;99.90
20977;DHT22;10647;51.016;3.720;2023-02-22T08:42:05;10.70;99.90
20977;DHT22;10647;51.016;3.720;2023-02-22T08:44:37;10.80;99.90
20977;DHT22;10647;51.016;3.720;2023-02-22T08:47:08;10.90;99.90
20977;DHT22;10647;51.016;3.720;2023-02-22T08:49:36;11.00;99.90
20977;DHT22;10647;51.016;3.720;2023-02-22T08:52:05;11.00;99.90
20977;DHT22;10647;51.016;3.720;2023-02-22T08:54:39;11.10;99.90
20977;DHT22;10647;51.016;3.720;2023-02-22T08:57:12;11.20;99.90
20977;DHT22;10647;51.016;3.720;2023-02-22T08:59:40;11.30;99.90
20977;DHT22;10647;51.016;3.720;2023-02-22T09:02:13;11.30;99.90
20977;DHT22;10647;51.016;3.720;2023-02-22T09:07:42;11.50;99.90
20977;DHT22;10647;51.016;3.720;2023-02-22T09:10:23;11.60;99.90
20977;DHT22;10647;51.016;3.720;2023-02-22T09:12:49;11.70;99.90
20977;DHT22;10647;51.016;3.720;2023-02-22T09:15:21;11.80;99.90
20977;DHT22;10647;51.016;3.720;2023-02-22T09:17:50;11.90;99.90
20977;DHT22;10647;51.016;3.720;2023-02-22T09:20:19;11.90;99.90
20977;DHT22;10647;51.016;3.720;2023-02-22T09:22:48;12.00;99.90
20977;DHT22;10647;51.016;3.720;2023-02-22T09:25:27;12.10;99.90
20977;DHT22;10647;51.016;3.720;2023-02-22T09:28:13;12.20;99.90
20977;DHT22;10647;51.016;3.720;2023-02-22T09:30:42;12.30;99.90
20977;DHT22;10647;51.016;3.720;2023-02-22T09:33:28;12.40;99.90
20977;DHT22;10647;51.016;3.720;2023-02-22T09:35:56;12.50;99.90
20977;DHT22;10647;51.016;3.720;2023-02-22T09:38:40;12.70;99.90
20977;DHT22;10647;51.016;3.720;2023-02-22T09:46:36;12.90;99.90
20977;DHT22;10647;51.016;3.720;2023-02-22T09:49:19;13.00;99.90
20977;DHT22;10647;51.016;3.720;2023-02-22T09:51:56;13.00;99.90
20977;DHT22;10647;51.016;3.720;2023-02-22T09:55:26;13.00;99.90
20977;DHT22;10647;51.016;3.720;2023-02-22T09:57:16;13.10;99.90
20977;DHT22;10647;51.016;3.720;2023-02-22T09:59:44;13.10;99.90
20977;DHT22;10647;51.016;3.720;2023-02-22T10:02:25;13.20;99.90
20977;DHT22;10647;51.016;3.720;2023-02-22T10:04:59;13.40;99.90
20977;DHT22;10647;51.016;3.720;2023-02-22T10:07:43;13.60;99.90
20977;DHT22;10647;51.016;3.720;2023-02-22T10:10:18;13.70;99.90
20977;DHT22;10647;51.016;3.720;2023-02-22T10:13:27;13.80;99.90
20977;DHT22;10647;51.016;3.720;2023-02-22T10:16:19;13.70;99.90
20977;DHT22;10647;51.016;3.720;2023-02-22T10:24:44;13.80;99.90
20977;DHT22;10647;51.016;3.720;2023-02-22T10:27:20;13.80;99.90
20977;DHT22;10647;51.016;3.720;2023-02-22T10:29:53;14.00;99.90
20977;DHT22;10647;51.016;3.720;2023-02-22T10:35:32;14.10;99.90
20977;DHT22;10647;51.016;3.720;2023-02-22T10:38:11;14.10;99.90
20977;DHT22;10647;51.016;3.720;2023-02-22T10:43:53;14.10;99.90
20977;DHT22;10647;51.016;3.720;2023-02-22T10:46:24;14.20;99.90
20977;DHT22;10647;51.016;3.720;2023-02-22T10:48:56;14.30;99.90
20977;DHT22;10647;51.016;3.720;2023-02-22T10:51:26;14.40;99.90
20977;DHT22;10647;51.016;3.720;2023-02-22T10:54:20;14.40;99.90
20977;DHT22;10647;51.016;3.720;2023-02-22T10:57:00;14.50;99.90
20977;DHT22;10647;51.016;3.720;2023-02-22T10:59:41;14.60;99.90
20977;DHT22;10647;51.016;3.720;2023-02-22T11:02:22;14.60;99.90
20977;DHT22;10647;51.016;3.720;2023-02-22T11:04:53;14.70;99.90
20977;DHT22;10647;51.016;3.720;2023-02-22T11:07:30;14.90;99.90
20977;DHT22;10647;51.016;3.720;2023-02-22T11:10:02;15.00;99.90
20977;DHT22;10647;51.016;3.720;2023-02-22T11:17:54;15.20;99.90
20977;DHT22;10647;51.016;3.720;2023-02-22T11:20:25;15.40;99.90
20977;DHT22;10647;51.016;3.720;2023-02-22T11:22:58;15.40;99.90
20977;DHT22;10647;51.016;3.720;2023-02-22T11:25:32;15.50;99.90
20977;DHT22;10647;51.016;3.720;2023-02-22T11:28:07;15.50;99.90
20977;DHT22;10647;51.016;3.720;2023-02-22T11:30:35;15.50;99.90
20977;DHT22;10647;51.016;3.720;2023-02-22T11:33:17;15.60;99.90
20977;DHT22;10647;51.016;3.720;2023-02-22T11:35:55;15.60;99.90
20977;DHT22;10647;51.016;3.720;2023-02-22T11:38:26;15.70;99.90
20977;DHT22;10647;51.016;3.720;2023-02-22T11:41:15;15.70;99.90
20977;DHT22;10647;51.016;3.720;2023-02-22T11:43:45;15.70;99.90
20977;DHT22;10647;51.016;3.720;2023-02-22T11:46:18;15.70;99.90
20977;DHT22;10647;51.016;3.720;2023-02-22T11:48:58;15.70;99.90
20977;DHT22;10647;51.016;3.720;2023-02-22T11:51:58;15.70;99.90
20977;DHT22;10647;51.016;3.720;2023-02-22T11:54:52;15.40;99.90
20977;DHT22;10647;51.016;3.720;2023-02-22T12:03:23;15.00;99.90
20977;DHT22;10647;51.016;3.720;2023-02-22T12:08:52;14.80;99.90
20977;DHT22;10647;51.016;3.720;2023-02-22T12:20:22;14.70;99.90
20977;DHT22;10647;51.016;3.720;2023-02-22T12:26:04;14.50;99.90
20977;DHT22;10647;51.016;3.720;2023-02-22T12:34:43;14.10;99.90
20977;DHT22;10647;51.016;3.720;2023-02-22T12:37:25;14.00;99.90
20977;DHT22;10647;51.016;3.720;2023-02-22T12:40:20;13.90;99.90
20977;DHT22;10647;51.016;3.720;2023-02-22T12:48:41;13.70;99.90
20977;DHT22;10647;51.016;3.720;2023-02-22T12:51:57;13.70;99.90
20977;DHT22;10647;51.016;3.720;2023-02-22T12:54:40;13.50;99.90
20977;DHT22;10647;51.016;3.720;2023-02-22T13:00:29;13.30;99.90
20977;DHT22;10647;51.016;3.720;2023-02-22T13:03:01;13.20;99.90
20977;DHT22;10647;51.016;3.720;2023-02-22T13:05:36;13.20;99.90
20977;DHT22;10647;51.016;3.720;2023-02-22T13:25:53;13.00;99.90
20977;DHT22;10647;51.016;3.720;2023-02-22T13:28:48;12.90;99.90
20977;DHT22;10647;51.016;3.720;2023-02-22T13:31:46;12.90;99.90
20977;DHT22;10647;51.016;3.720;2023-02-22T13:34:23;12.90;99.90
20977;DHT22;10647;51.016;3.720;2023-02-22T13:39:49;12.70;99.90
20977;DHT22;10647;51.016;3.720;2023-02-22T13:42:58;12.80;99.90
20977;DHT22;10647;51.016;3.720;2023-02-22T13:45:04;12.80;99.90
20977;DHT22;10647;51.016;3.720;2023-02-22T13:52:59;12.90;99.90
20977;DHT22;10647;51.016;3.720;2023-02-22T13:55:35;12.80;99.90
20977;DHT22;10647;51.016;3.720;2023-02-22T13:58:07;12.80;99.90
20977;DHT22;10647;51.016;3.720;2023-02-22T14:03:36;12.70;99.90
20977;DHT22;10647;51.016;3.720;2023-02-22T14:06:56;12.70;99.90
20977;DHT22;10647;51.016;3.720;2023-02-22T14:08:40;12.70;99.90
20977;DHT22;10647;51.016;3.720;2023-02-22T14:14:11;12.70;99.90
20977;DHT22;10647;51.016;3.720;2023-02-22T14:16:40;12.60;99.90
20977;DHT22;10647;51.016;3.720;2023-02-22T14:19:13;12.60;99.90
20977;DHT22;10647;51.016;3.720;2023-02-22T14:22:01;12.60;99.90
20977;DHT22;10647;51.016;3.720;2023-02-22T14:24:42;12.60;99.90
20977;DHT22;10647;51.016;3.720;2023-02-22T14:27:11;12.60;99.90
20977;DHT22;10647;51.016;3.720;2023-02-22T14:29:55;12.60;99.90
20977;DHT22;10647;51.016;3.720;2023-02-22T14:32:31;12.60;99.90
20977;DHT22;10647;51.016;3.720;2023-02-22T14:35:17;12.60;99.90
20977;DHT22;10647;51.016;3.720;2023-02-22T14:37:53;12.70;99.90
20977;DHT22;10647;51.016;3.720;2023-02-22T14:40:25;12.60;99.90
20977;DHT22;10647;51.016;3.720;2023-02-22T14:43:17;12.70;99.90
20977;DHT22;10647;51.016;3.720;2023-02-22T14:48:32;12.70;99.90
20977;DHT22;10647;51.016;3.720;2023-02-22T14:51:22;12.70;99.90
20977;DHT22;10647;51.016;3.720;2023-02-22T14:53:56;12.70;99.90
20977;DHT22;10647;51.016;3.720;2023-02-22T14:56:28;12.80;99.90
20977;DHT22;10647;51.016;3.720;2023-02-22T14:59:21;12.90;99.90
20977;DHT22;10647;51.016;3.720;2023-02-22T15:01:56;12.90;99.90
20977;DHT22;10647;51.016;3.720;2023-02-22T15:07:23;12.90;99.90
20977;DHT22;10647;51.016;3.720;2023-02-22T15:10:18;12.80;99.90
20977;DHT22;10647;51.016;3.720;2023-02-22T15:12:51;12.80;99.90
20977;DHT22;10647;51.016;3.720;2023-02-22T15:16:02;12.90;99.90
20977;DHT22;10647;51.016;3.720;2023-02-22T15:18:40;12.80;99.90
20977;DHT22;10647;51.016;3.720;2023-02-22T15:21:31;12.80;99.90
20977;DHT22;10647;51.016;3.720;2023-02-22T15:24:02;12.80;99.90
20977;DHT22;10647;51.016;3.720;2023-02-22T15:29:29;12.80;99.90
20977;DHT22;10647;51.016;3.720;2023-02-22T15:31:53;12.70;99.90
20977;DHT22;10647;51.016;3.720;2023-02-22T15:34:27;12.60;99.90
20977;DHT22;10647;51.016;3.720;2023-02-22T15:36:53;12.60;99.90
20977;DHT22;10647;51.016;3.720;2023-02-22T15:42:15;12.60;99.90
20977;DHT22;10647;51.016;3.720;2023-02-22T15:44:48;12.70;99.90
20977;DHT22;10647;51.016;3.720;2023-02-22T15:47:23;12.70;99.90
20977;DHT22;10647;51.016;3.720;2023-02-22T15:50:27;12.80;99.90
20977;DHT22;10647;51.016;3.720;2023-02-22T15:53:06;12.80;99.90
20977;DHT22;10647;51.016;3.720;2023-02-22T15:55:40;12.80;99.90
20977;DHT22;10647;51.016;3.720;2023-02-22T15:58:27;12.80;99.90
20977;DHT22;10647;51.016;3.720;2023-02-22T16:03:47;12.70;99.90
20977;DHT22;10647;51.016;3.720;2023-02-22T16:06:30;12.80;99.90
20977;DHT22;10647;51.016;3.720;2023-02-22T16:09:07;12.80;99.90
20977;DHT22;10647;51.016;3.720;2023-02-22T16:11:37;12.70;99.90
20977;DHT22;10647;51.016;3.720;2023-02-22T16:19:42;12.80;99.90
20977;DHT22;10647;51.016;3.720;2023-02-22T16:22:37;12.90;99.90
20977;DHT22;10647;51.016;3.720;2023-02-22T16:25:26;12.90;99.90
20977;DHT22;10647;51.016;3.720;2023-02-22T16:28:01;12.90;99.90
20977;DHT22;10647;51.016;3.720;2023-02-22T16:30:55;13.00;99.90
20977;DHT22;10647;51.016;3.720;2023-02-22T16:33:20;12.90;99.90
20977;DHT22;10647;51.016;3.720;2023-02-22T16:35:48;12.90;99.90
20977;DHT22;10647;51.016;3.720;2023-02-22T16:38:24;12.90;99.90
20977;DHT22;10647;51.016;3.720;2023-02-22T16:40:54;12.90;99.90
20977;DHT22;10647;51.016;3.720;2023-02-22T16:43:26;12.90;99.90
20977;DHT22;10647;51.016;3.720;2023-02-22T16:45:56;12.90;99.90
20977;DHT22;10647;51.016;3.720;2023-02-22T16:48:31;12.90;99.90
20977;DHT22;10647;51.016;3.720;2023-02-22T16:51:39;12.90;99.90
20977;DHT22;10647;51.016;3.720;2023-02-22T16:53:40;12.90;99.90
20977;DHT22;10647;51.016;3.720;2023-02-22T16:56:09;12.90;99.90
20977;DHT22;10647;51.016;3.720;2023-02-22T16:58:39;12.90;99.90
20977;DHT22;10647;51.016;3.720;2023-02-22T17:01:07;12.90;99.90
20977;DHT22;10647;51.016;3.720;2023-02-22T17:03:37;12.80;99.90
20977;DHT22;10647;51.016;3.720;2023-02-22T17:06:04;12.80;99.90
20977;DHT22;10647;51.016;3.720;2023-02-22T17:08:51;12.80;99.90
20977;DHT22;10647;51.016;3.720;2023-02-22T17:11:19;12.80;99.90
20977;DHT22;10647;51.016;3.720;2023-02-22T17:13:49;12.70;99.90
20977;DHT22;10647;51.016;3.720;2023-02-22T17:16:19;12.70;99.90
20977;DHT22;10647;51.016;3.720;2023-02-22T17:18:47;12.70;99.90
20977;DHT22;10647;51.016;3.720;2023-02-22T17:21:16;12.60;99.90
20977;DHT22;10647;51.016;3.720;2023-02-22T17:23:43;12.70;99.90
20977;DHT22;10647;51.016;3.720;2023-02-22T17:26:12;12.70;99.90
20977;DHT22;10647;51.016;3.720;2023-02-22T17:28:40;12.60;99.90
20977;DHT22;10647;51.016;3.720;2023-02-22T17:31:30;12.70;99.90
20977;DHT22;10647;51.016;3.720;2023-02-22T17:33:44;12.60;99.90
20977;DHT22;10647;51.016;3.720;2023-02-22T17:36:12;12.60;99.90
20977;DHT22;10647;51.016;3.720;2023-02-22T17:38:40;12.60;99.90
20977;DHT22;10647;51.016;3.720;2023-02-22T17:41:08;12.60;99.90
20977;DHT22;10647;51.016;3.720;2023-02-22T17:43:36;12.60;99.90
20977;DHT22;10647;51.016;3.720;2023-02-22T17:46:14;12.60;99.90
20977;DHT22;10647;51.016;3.720;2023-02-22T17:48:41;12.50;99.90
20977;DHT22;10647;51.016;3.720;2023-02-22T17:51:10;12.50;99.90
20977;DHT22;10647;51.016;3.720;2023-02-22T17:53:57;12.50;99.90
20977;DHT22;10647;51.016;3.720;2023-02-22T17:56:28;12.40;99.90
20977;DHT22;10647;51.016;3.720;2023-02-22T17:58:55;12.40;99.90
20977;DHT22;10647;51.016;3.720;2023-02-22T18:04:14;12.30;99.90
20977;DHT22;10647;51.016;3.720;2023-02-22T18:06:44;12.20;99.90
20977;DHT22;10647;51.016;3.720;2023-02-22T18:09:14;12.20;99.90
20977;DHT22;10647;51.016;3.720;2023-02-22T18:11:43;12.20;99.90
20977;DHT22;10647;51.016;3.720;2023-02-22T18:14:11;12.10;99.90
20977;DHT22;10647;51.016;3.720;2023-02-22T18:16:46;12.10;99.90
20977;DHT22;10647;51.016;3.720;2023-02-22T18:19:14;12.10;99.90
20977;DHT22;10647;51.016;3.720;2023-02-22T18:21:45;12.10;99.90
20977;DHT22;10647;51.016;3.720;2023-02-22T18:24:13;12.10;99.90
20977;DHT22;10647;51.016;3.720;2023-02-22T18:26:40;12.10;99.90
20977;DHT22;10647;51.016;3.720;2023-02-22T18:29:08;12.00;99.90
20977;DHT22;10647;51.016;3.720;2023-02-22T18:31:37;12.10;99.90
20977;DHT22;10647;51.016;3.720;2023-02-22T18:34:05;12.10;99.90
20977;DHT22;10647;51.016;3.720;2023-02-22T18:36:32;12.00;99.90
20977;DHT22;10647;51.016;3.720;2023-02-22T18:39:00;12.00;99.90
20977;DHT22;10647;51.016;3.720;2023-02-22T18:41:28;12.00;99.90
20977;DHT22;10647;51.016;3.720;2023-02-22T18:43:56;12.00;99.90
20977;DHT22;10647;51.016;3.720;2023-02-22T18:46:25;12.10;99.90
20977;DHT22;10647;51.016;3.720;2023-02-22T18:48:56;12.00;99.90
20977;DHT22;10647;51.016;3.720;2023-02-22T18:51:24;12.00;99.90
20977;DHT22;10647;51.016;3.720;2023-02-22T18:53:53;12.00;99.90
20977;DHT22;10647;51.016;3.720;2023-02-22T18:56:23;12.00;99.90
20977;DHT22;10647;51.016;3.720;2023-02-22T18:58:56;12.00;99.90
20977;DHT22;10647;51.016;3.720;2023-02-22T19:01:25;11.90;99.90
20977;DHT22;10647;51.016;3.720;2023-02-22T19:03:52;11.90;99.90
20977;DHT22;10647;51.016;3.720;2023-02-22T19:06:21;12.00;99.90
20977;DHT22;10647;51.016;3.720;2023-02-22T19:08:49;12.00;99.90
20977;DHT22;10647;51.016;3.720;2023-02-22T19:11:20;12.00;99.90
20977;DHT22;10647;51.016;3.720;2023-02-22T19:13:50;12.00;99.90
20977;DHT22;10647;51.016;3.720;2023-02-22T19:16:21;12.00;99.90
20977;DHT22;10647;51.016;3.720;2023-02-22T19:18:51;12.00;99.90